Time;durP1;ratioP1;P1;durP2;ratioP2;P2;SDS_P1;SDS_P2;PMS_P1;PMS_P2;Temp;Humidity;BMP_temperature;BMP_pressure;BME280_temperature;BME280_humidity;BME280_pressure;Samples;Min_cycle;Max_cycle;Signal;HPM_P1;HPM_P2
2022/06/13 00:00:25;;;;;;;19.48;4.93;;;;;;;16.63;100.00;102033.16;5032075;28;20029;-68
2022/06/13 00:02:50;;;;;;;19.35;5.15;;;;;;;16.58;100.00;102039.28;5029878;28;20033;-67
2022/06/13 00:05:16;;;;;;;18.85;4.85;;;;;;;16.54;100.00;102040.13;5032817;28;20064;-67
2022/06/13 00:07:42;;;;;;;18.52;6.05;;;;;;;16.52;100.00;102024.16;5029415;28;20025;-68
2022/06/13 00:10:10;;;;;;;19.60;5.32;;;;;;;16.52;100.00;102022.41;5031367;28;20473;-68
2022/06/13 00:12:35;;;;;;;17.40;5.32;;;;;;;16.54;100.00;102013.56;5023047;28;20033;-67
2022/06/13 00:15:00;;;;;;;22.75;5.55;;;;;;;16.52;100.00;102022.41;5032253;28;20025;-68
2022/06/13 00:17:26;;;;;;;15.98;5.45;;;;;;;16.52;100.00;102019.75;5028612;28;20026;-68
2022/06/13 00:19:52;;;;;;;21.13;5.32;;;;;;;16.52;100.00;102022.41;5032191;28;20385;-68
2022/06/13 00:22:18;;;;;;;19.05;5.32;;;;;;;16.50;100.00;102021.47;5031990;28;20061;-68
2022/06/13 00:24:44;;;;;;;17.88;4.97;;;;;;;16.45;100.00;102015.22;5032989;28;20518;-69
2022/06/13 00:27:10;;;;;;;19.65;6.15;;;;;;;16.44;100.00;102012.56;5031268;28;20466;-66
2022/06/13 00:29:36;;;;;;;23.55;6.10;;;;;;;16.42;100.00;102004.56;5028851;28;20040;-68
2022/06/13 00:32:02;;;;;;;21.95;5.80;;;;;;;16.45;100.00;102009.91;5032890;28;20045;-67
2022/06/13 00:34:27;;;;;;;17.40;5.68;;;;;;;16.46;100.00;102010.81;5028386;28;20029;-67
2022/06/13 00:36:53;;;;;;;23.77;6.25;;;;;;;16.42;100.00;102020.50;5026550;28;20032;-68
2022/06/13 00:39:18;;;;;;;19.70;6.13;;;;;;;16.35;100.00;102016.00;5031251;28;20091;-68
2022/06/13 00:41:45;;;;;;;27.13;6.68;;;;;;;16.34;100.00;102011.56;5030080;28;20075;-69
2022/06/13 00:44:27;;;;;;;21.80;6.47;;;;;;;16.32;100.00;102015.97;5031288;28;20053;-68
2022/06/13 00:46:53;;;;;;;25.33;6.70;;;;;;;16.32;100.00;102013.31;5031612;28;20021;-69
2022/06/13 00:49:45;;;;;;;21.48;5.65;;;;;;;16.32;100.00;102002.72;5033225;28;20037;-67
2022/06/13 00:52:20;;;;;;;17.98;5.25;;;;;;;16.38;100.00;102010.72;5028351;28;20519;-68
2022/06/13 00:54:47;;;;;;;24.85;6.10;;;;;;;16.38;100.00;102002.75;5032780;28;20029;-68
2022/06/13 00:57:18;;;;;;;20.75;5.78;;;;;;;16.36;100.00;101999.22;5030325;28;20503;-68
2022/06/13 00:59:45;;;;;;;24.90;5.50;;;;;;;16.37;100.00;101995.66;5035596;28;20025;-68
2022/06/13 01:02:11;;;;;;;20.23;5.22;;;;;;;16.39;100.00;102004.53;5036875;28;20041;-67
2022/06/13 01:04:39;;;;;;;17.75;5.00;;;;;;;16.33;100.00;102002.72;5038379;28;20354;-67
2022/06/13 01:07:05;;;;;;;26.33;7.03;;;;;;;16.33;100.00;102004.47;5035658;28;20517;-69
2022/06/13 01:12:17;;;;;;;25.63;5.88;;;;;;;16.39;100.00;102001.88;5032880;28;20500;-67
2022/06/13 01:15:01;;;;;;;19.75;5.22;;;;;;;16.40;100.00;102002.75;5038872;28;20017;-68
2022/06/13 01:17:32;;;;;;;24.27;4.93;;;;;;;16.40;100.00;102001.03;5033401;28;20061;-68
2022/06/13 01:20:06;;;;;;;21.42;5.68;;;;;;;16.40;100.00;102002.75;5039090;28;20032;-68
2022/06/13 01:22:43;;;;;;;21.83;5.70;;;;;;;16.31;100.00;102004.44;5038260;28;20033;-67
2022/06/13 01:25:38;;;;;;;25.25;5.82;;;;;;;16.27;100.00;102001.75;5039029;28;20388;-68
2022/06/13 01:28:41;;;;;;;26.45;5.90;;;;;;;16.16;100.00;101997.19;5033093;28;20116;-67
2022/06/13 01:31:12;;;;;;;24.60;5.47;;;;;;;16.21;100.00;102004.31;5034184;28;20029;-68
2022/06/13 01:33:56;;;;;;;32.47;6.15;;;;;;;16.19;100.00;102001.66;5038182;28;20112;-68
2022/06/13 01:36:55;;;;;;;23.10;5.70;;;;;;;16.07;100.00;102002.38;5034457;28;20466;-67
2022/06/13 01:39:37;;;;;;;22.08;5.35;;;;;;;16.06;100.00;101999.72;5038514;28;20029;-67
2022/06/13 01:42:35;;;;;;;23.48;6.00;;;;;;;16.09;100.00;101999.75;5034630;28;20092;-68
2022/06/13 01:45:21;;;;;;;25.13;5.88;;;;;;;16.14;100.00;101998.97;5035392;28;20122;-68
2022/06/13 01:47:56;;;;;;;22.88;6.80;;;;;;;16.19;100.00;102004.31;5027985;28;20040;-68
2022/06/13 01:50:43;;;;;;;21.73;5.20;;;;;;;16.18;100.00;102000.78;5036783;28;20496;-68
2022/06/13 01:53:45;;;;;;;24.23;5.88;;;;;;;16.16;100.00;102005.16;5029528;28;20484;-67
2022/06/13 01:56:13;;;;;;;26.08;6.18;;;;;;;16.12;100.00;102006.00;5030109;28;20036;-67
2022/06/13 01:58:54;;;;;;;17.90;5.03;;;;;;;16.10;100.00;102013.06;5038750;28;20396;-67
2022/06/13 02:01:34;;;;;;;27.27;6.20;;;;;;;16.16;100.00;102007.81;5036208;28;20053;-67
2022/06/13 02:04:31;;;;;;;19.33;5.50;;;;;;;16.19;100.00;102012.28;5037471;28;20108;-68
2022/06/13 02:07:03;;;;;;;34.22;5.88;;;;;;;16.15;100.00;102003.38;5029448;28;20473;-68
2022/06/13 02:09:33;;;;;;;22.40;6.10;;;;;;;16.11;100.00;102004.22;5033226;28;20079;-66
2022/06/13 02:11:59;;;;;;;20.80;5.47;;;;;;;16.11;100.00;102005.97;5034066;28;20404;-68
2022/06/13 02:14:37;;;;;;;17.42;5.10;;;;;;;16.04;100.00;102005.00;5035636;28;20028;-68
2022/06/13 02:17:07;;;;;;;18.88;4.95;;;;;;;16.07;100.00;102006.81;5032252;28;20037;-68
2022/06/13 02:19:54;;;;;;;27.90;5.15;;;;;;;16.06;100.00;102005.94;5035886;28;20052;-67
2022/06/13 02:22:41;;;;;;;18.45;4.78;;;;;;;15.99;100.00;102006.72;5032223;28;20488;-68
2022/06/13 02:25:15;;;;;;;17.48;4.55;;;;;;;15.96;100.00;102014.66;5033260;28;20392;-67
2022/06/13 02:27:44;;;;;;;15.88;4.32;;;;;;;15.89;100.00;102012.78;5035206;28;20037;-68
2022/06/13 02:30:14;;;;;;;21.02;4.05;;;;;;;15.83;100.00;102013.59;5035354;28;20045;-68
2022/06/13 02:32:54;;;;;;;17.23;3.72;;;;;;;15.80;100.00;102014.44;5034402;28;20033;-68
2022/06/13 02:35:27;;;;;;;12.18;3.60;;;;;;;15.80;100.00;102008.22;5033208;28;20088;-67
2022/06/13 02:38:03;;;;;;;13.13;4.03;;;;;;;15.88;100.00;102011.00;5030540;28;20029;-66
2022/06/13 02:40:45;;;;;;;12.95;2.85;;;;;;;15.78;100.00;102007.31;5034225;28;20570;-67
2022/06/13 02:43:24;;;;;;;9.20;2.75;;;;;;;15.86;100.00;102013.63;5032134;28;20032;-67
2022/06/13 02:45:56;;;;;;;9.68;3.03;;;;;;;15.82;100.00;102012.69;5033201;28;20535;-66
2022/06/13 02:48:30;;;;;;;10.53;3.03;;;;;;;15.87;100.00;102009.22;5032660;28;20075;-67
2022/06/13 02:51:17;;;;;;;8.52;2.72;;;;;;;15.78;100.00;102005.53;5028780;28;20052;-68
2022/06/13 02:54:05;;;;;;;11.38;2.85;;;;;;;15.74;100.00;102022.28;5034352;28;20033;-68
2022/06/13 02:59:52;;;;;;;18.42;3.00;;;;;;;15.71;100.00;102018.69;5034347;28;20079;-67
2022/06/13 03:02:25;;;;;;;11.75;2.83;;;;;;;15.70;100.00;102014.28;5030388;28;20088;-68
2022/06/13 03:05:07;;;;;;;10.70;2.50;;;;;;;15.72;100.00;102015.16;5029211;28;20021;-67
2022/06/13 03:07:38;;;;;;;10.15;2.80;;;;;;;15.77;100.00;102018.78;5033823;28;20125;-67
2022/06/13 03:10:15;;;;;;;8.88;2.90;;;;;;;15.68;100.00;102020.44;5032530;28;20032;-68
2022/06/13 03:13:05;;;;;;;11.00;3.00;;;;;;;15.72;100.00;102021.38;5033105;28;20029;-68
2022/06/13 03:15:45;;;;;;;8.10;2.78;;;;;;;15.73;100.00;102023.13;5034648;28;20377;-67
2022/06/13 03:18:17;;;;;;;11.00;2.67;;;;;;;15.72;100.00;102025.78;5031813;28;20030;-68
2022/06/13 03:20:55;;;;;;;13.10;2.78;;;;;;;15.77;100.00;102030.28;5032681;28;20025;-67
2022/06/13 03:23:36;;;;;;;10.80;2.80;;;;;;;15.76;100.00;102025.88;5030933;28;20477;-68
2022/06/13 03:26:07;;;;;;;8.82;2.80;;;;;;;15.78;100.00;102037.38;5026382;28;20021;-68
2022/06/13 03:28:47;;;;;;;13.70;2.92;;;;;;;15.78;100.00;102031.19;5033830;28;20060;-68
2022/06/13 03:31:22;;;;;;;8.45;2.65;;;;;;;15.80;100.00;102027.72;5032750;28;20024;-68
2022/06/13 03:33:53;;;;;;;13.88;2.95;;;;;;;15.79;100.00;102032.94;5032905;28;20104;-68
2022/06/13 03:36:32;;;;;;;9.20;3.08;;;;;;;15.78;100.00;102034.72;5033183;28;20478;-69
2022/06/13 03:39:18;;;;;;;6.97;2.50;;;;;;;15.79;100.00;102036.50;5029135;28;20171;-68
2022/06/13 03:41:49;;;;;;;10.98;2.63;;;;;;;15.82;100.00;102044.53;5031376;28;20029;-68
2022/06/13 03:44:24;;;;;;;7.47;2.42;;;;;;;15.82;100.00;102039.22;5032182;28;20029;-69
2022/06/13 03:47:01;;;;;;;9.85;2.30;;;;;;;15.83;100.00;102041.03;5033062;28;20381;-69
2022/06/13 03:49:39;;;;;;;7.40;2.50;;;;;;;15.83;100.00;102041.03;5033570;28;20044;-68
2022/06/13 03:52:09;;;;;;;10.43;2.60;;;;;;;15.81;100.00;102053.38;5031528;28;20057;-68
2022/06/13 03:54:48;;;;;;;12.23;2.78;;;;;;;15.80;100.00;102046.31;5032665;28;20036;-69
2022/06/13 03:57:24;;;;;;;7.25;2.38;;;;;;;15.78;100.00;102063.03;5027955;28;20354;-68
2022/06/13 04:00:01;;;;;;;9.45;2.85;;;;;;;15.71;100.00;102059.41;5034339;28;20448;-68
2022/06/13 04:02:30;;;;;;;9.43;2.35;;;;;;;15.74;100.00;102056.78;5030113;28;20029;-67
2022/06/13 04:04:56;;;;;;;11.30;2.78;;;;;;;15.75;100.00;102062.97;5033043;28;20477;-68
2022/06/13 04:07:23;;;;;;;12.02;2.50;;;;;;;15.69;100.00;102055.81;5032387;28;20017;-69
2022/06/13 04:10:08;;;;;;;10.40;2.35;;;;;;;15.70;100.00;102060.25;5032720;28;20033;-69
2022/06/13 04:12:49;;;;;;;13.05;2.22;;;;;;;15.72;100.00;102057.63;5032373;28;20071;-68
2022/06/13 04:15:20;;;;;;;10.45;2.17;;;;;;;15.71;100.00;102064.72;5024593;28;20116;-68
2022/06/13 04:18:03;;;;;;;9.90;2.10;;;;;;;15.72;100.00;102069.16;5031078;28;20080;-69
2022/06/13 04:20:54;;;;;;;3.80;1.60;;;;;;;15.75;100.00;102062.97;5032603;28;20087;-68
2022/06/13 04:23:30;;;;;;;8.70;1.70;;;;;;;15.77;100.00;102063.91;5030269;28;20083;-68
2022/06/13 04:26:17;;;;;;;8.45;1.60;;;;;;;15.73;100.00;102065.59;5030931;28;20385;-68
2022/06/13 04:28:52;;;;;;;10.75;2.47;;;;;;;15.73;100.00;102065.59;5033369;28;20087;-68
2022/06/13 04:31:19;;;;;;;7.38;1.98;;;;;;;15.67;100.00;102066.41;5031153;28;20053;-68
2022/06/13 04:33:50;;;;;;;9.55;1.90;;;;;;;15.66;100.00;102063.75;5025303;28;20025;-68
2022/06/13 04:36:19;;;;;;;13.15;1.88;;;;;;;15.55;100.00;102070.66;5029328;28;20022;-68
2022/06/13 04:38:52;;;;;;;8.50;2.00;;;;;;;15.57;100.00;102074.19;5031102;28;20029;-67
2022/06/13 04:41:21;;;;;;;10.25;2.08;;;;;;;15.58;100.00;102071.56;5030745;28;20034;-67
2022/06/13 04:43:53;;;;;;;7.22;1.70;;;;;;;15.60;100.00;102069.84;5030628;28;20051;-67
2022/06/13 04:46:21;;;;;;;8.02;1.65;;;;;;;15.56;100.00;102067.09;5032489;28;20489;-68
2022/06/13 04:48:50;;;;;;;7.28;2.00;;;;;;;15.61;100.00;102074.28;5030438;28;20036;-68
2022/06/13 04:51:20;;;;;;;6.10;1.80;;;;;;;15.57;100.00;102067.16;5030766;28;20104;-67
2022/06/13 04:53:57;;;;;;;7.88;1.80;;;;;;;15.62;100.00;102077.81;5031802;28;20021;-68
2022/06/13 04:56:24;;;;;;;11.20;2.15;;;;;;;15.55;100.00;102081.25;5025865;28;20434;-67
2022/06/13 04:58:52;;;;;;;12.68;1.83;;;;;;;15.50;100.00;102067.91;5032759;28;20033;-68
2022/06/13 05:01:22;;;;;;;11.27;2.35;;;;;;;15.42;100.00;102072.19;5031920;28;20401;-68
2022/06/13 05:03:49;;;;;;;7.53;1.77;;;;;;;15.43;100.00;102084.59;5030905;28;20376;-68
2022/06/13 05:06:24;;;;;;;7.38;2.17;;;;;;;15.38;100.00;102089.81;5030278;28;20080;-68
2022/06/13 05:08:57;;;;;;;9.27;2.28;;;;;;;15.31;100.00;102095.88;5029624;28;20025;-68
2022/06/13 05:11:38;;;;;;;9.13;2.35;;;;;;;15.29;100.00;102097.63;5030519;28;20033;-66
2022/06/13 05:14:18;;;;;;;10.95;1.83;;;;;;;15.26;100.00;102105.50;5025612;28;20441;-68
2022/06/13 05:17:24;;;;;;;9.55;1.83;;;;;;;15.20;100.00;102105.44;5027535;28;20029;-68
2022/06/13 05:19:50;;;;;;;7.18;1.90;;;;;;;15.17;100.00;102106.25;5024884;28;20022;-68
2022/06/13 05:22:53;;;;;;;10.10;2.10;;;;;;;15.25;100.00;102117.00;5027172;28;20124;-68
2022/06/13 05:25:27;;;;;;;16.02;1.95;;;;;;;15.29;100.00;102116.19;5023501;28;20095;-67
2022/06/13 05:27:54;;;;;;;9.32;1.88;;;;;;;15.21;100.00;102121.34;5028105;28;20465;-68
2022/06/13 05:30:20;;;;;;;7.22;1.35;;;;;;;15.17;100.00;102125.69;5027605;28;20112;-68
2022/06/13 05:32:45;;;;;;;11.85;1.92;;;;;;;15.23;100.00;102132.00;5028223;28;20033;-68
2022/06/13 05:35:24;;;;;;;14.10;2.38;;;;;;;15.24;100.00;102129.38;5028337;28;20068;-67
2022/06/13 05:37:51;;;;;;;6.22;1.42;;;;;;;15.22;100.00;102130.19;5031398;28;20072;-67
2022/06/13 05:40:20;;;;;;;6.15;1.13;;;;;;;15.22;100.00;102141.72;5030197;28;20033;-69
2022/06/13 05:42:46;;;;;;;9.55;1.45;;;;;;;15.24;100.00;102134.66;5025367;28;20500;-70
2022/06/13 05:45:13;;;;;;;7.88;1.73;;;;;;;15.37;100.00;102138.44;5025524;28;20099;-69
2022/06/13 05:47:41;;;;;;;6.45;1.20;;;;;;;15.42;100.00;102142.03;5026882;28;20029;-69
2022/06/13 05:50:13;;;;;;;5.72;1.42;;;;;;;15.35;100.00;102150.78;5025568;28;20030;-67
2022/06/13 05:52:38;;;;;;;8.30;1.35;;;;;;;15.45;100.00;102144.78;5030139;28;20038;-67
2022/06/13 05:55:04;;;;;;;8.85;1.48;;;;;;;15.42;100.00;102150.00;5026961;28;20027;-67
2022/06/13 05:57:30;;;;;;;6.53;1.40;;;;;;;15.47;100.00;102152.75;5031104;28;20038;-69
2022/06/13 05:59:55;;;;;;;6.40;1.55;;;;;;;15.43;100.00;102157.09;5024389;28;20037;-68
2022/06/13 06:02:20;;;;;;;13.35;2.53;;;;;;;15.43;100.00;102154.44;5025257;28;20037;-68
2022/06/13 06:04:46;;;;;;;14.25;1.98;;;;;;;15.49;100.00;102151.00;5030319;28;20041;-68
2022/06/13 06:07:11;;;;;;;4.88;1.55;;;;;;;15.60;100.00;102159.16;5025793;28;20075;-69
2022/06/13 06:09:36;;;;;;;12.32;1.67;;;;;;;15.56;100.00;102163.53;5027361;28;20092;-69
2022/06/13 06:12:02;;;;;;;7.78;2.03;;;;;;;15.59;100.00;102168.00;5032107;28;20064;-69
2022/06/13 06:14:27;;;;;;;15.13;1.92;;;;;;;15.50;100.00;102172.28;5033654;28;20025;-68
2022/06/13 06:16:53;;;;;;;7.38;1.88;;;;;;;15.63;100.00;102177.78;5034559;28;20033;-69
2022/06/13 06:19:18;;;;;;;4.18;1.30;;;;;;;15.69;100.00;102180.53;5032952;28;20037;-69
2022/06/13 06:21:43;;;;;;;13.95;1.67;;;;;;;15.88;100.00;102178.22;5035459;28;20107;-69
2022/06/13 06:24:09;;;;;;;7.43;1.70;;;;;;;15.93;100.00;102173.88;5034397;28;20496;-69
2022/06/13 06:26:34;;;;;;;13.07;1.67;;;;;;;15.95;100.00;102181.00;5032820;28;20037;-68
2022/06/13 06:28:59;;;;;;;5.55;1.45;;;;;;;15.98;100.00;102188.13;5026334;28;20060;-68
2022/06/13 06:31:25;;;;;;;7.20;1.83;;;;;;;15.92;100.00;102185.38;5024178;28;20057;-68
2022/06/13 06:33:50;;;;;;;8.13;1.50;;;;;;;15.80;100.00;102186.97;5024941;28;20026;-69
2022/06/13 06:36:16;;;;;;;5.05;0.93;;;;;;;15.76;100.00;102181.53;5024471;28;20022;-69
2022/06/13 06:38:42;;;;;;;3.83;1.00;;;;;;;15.74;100.00;102184.16;5028027;28;20072;-69
2022/06/13 06:41:07;;;;;;;6.90;0.90;;;;;;;15.67;99.47;102188.47;5022716;28;20049;-69
2022/06/13 06:43:33;;;;;;;6.68;1.05;;;;;;;15.68;97.67;102184.03;5033723;28;20163;-69
2022/06/13 06:45:58;;;;;;;9.77;0.95;;;;;;;15.71;96.86;102186.78;5034314;28;20029;-67
2022/06/13 06:48:24;;;;;;;3.13;0.60;;;;;;;15.79;98.29;102193.09;5033159;28;20029;-68
2022/06/13 06:50:51;;;;;;;4.30;0.98;;;;;;;15.82;97.89;102190.53;5034048;28;20084;-67
2022/06/13 06:53:23;;;;;;;8.05;1.00;;;;;;;15.82;97.59;102193.19;5027876;28;20029;-68
2022/06/13 07:01:19;;;;;;;5.55;0.73;;;;;;;16.15;100.00;102193.69;5034094;28;20183;-68
2022/06/13 07:03:45;;;;;;;5.88;1.10;;;;;;;16.26;100.00;102209.78;5030646;28;20478;-68
2022/06/13 07:06:12;;;;;;;8.07;1.33;;;;;;;16.28;100.00;102208.94;5033882;28;20032;-69
2022/06/13 07:08:37;;;;;;;9.35;1.70;;;;;;;16.32;100.00;102205.47;5033189;28;20029;-68
2022/06/13 07:13:51;;;;;;;10.05;1.80;;;;;;;16.02;100.00;102211.22;5033155;28;20036;-69
2022/06/13 07:16:16;;;;;;;4.40;1.55;;;;;;;15.85;100.00;102219.75;5033487;28;20063;-70
2022/06/13 07:18:43;;;;;;;5.50;1.67;;;;;;;16.01;100.00;102214.72;5032653;28;20481;-69
2022/06/13 07:21:09;;;;;;;7.05;1.48;;;;;;;15.92;100.00;102215.44;5033045;28;20054;-68
2022/06/13 07:23:34;;;;;;;7.32;1.27;;;;;;;15.89;100.00;102225.16;5033511;28;20473;-69
2022/06/13 07:26:00;;;;;;;4.63;1.00;;;;;;;15.99;100.00;102213.78;5034116;28;20025;-69
2022/06/13 07:28:25;;;;;;;4.93;1.00;;;;;;;16.12;100.00;102223.75;5033215;28;20076;-69
2022/06/13 07:30:51;;;;;;;5.43;1.30;;;;;;;16.28;98.90;102224.88;5033319;28;20036;-70
2022/06/13 07:33:17;;;;;;;5.85;1.40;;;;;;;16.28;99.92;102230.19;5032453;28;20064;-70
2022/06/13 07:35:42;;;;;;;5.75;1.48;;;;;;;16.13;100.00;102235.28;5032431;28;20087;-70
2022/06/13 07:38:18;;;;;;;8.32;2.08;;;;;;;15.85;100.00;102242.78;5032020;28;20055;-69
2022/06/13 07:40:46;;;;;;;14.57;1.80;;;;;;;15.77;100.00;102241.72;5021218;28;20025;-70
2022/06/13 07:43:28;;;;;;;7.03;1.20;;;;;;;15.60;100.00;102247.63;5033051;28;20021;-68
2022/06/13 07:45:54;;;;;;;5.80;1.33;;;;;;;15.76;100.00;102248.78;5034054;28;20041;-71
2022/06/13 07:48:20;;;;;;;12.73;1.80;;;;;;;15.99;100.00;102253.63;5033534;28;20065;-70
2022/06/13 07:50:45;;;;;;;4.78;1.30;;;;;;;16.14;97.12;102248.56;5033698;28;20050;-70
2022/06/13 07:53:11;;;;;;;6.07;1.02;;;;;;;16.12;94.84;102254.72;5031701;28;20025;-69
2022/06/13 07:55:37;;;;;;;4.15;1.20;;;;;;;16.02;95.38;102256.34;5033859;28;20026;-70
2022/06/13 07:58:03;;;;;;;6.55;1.13;;;;;;;16.11;95.27;102258.25;5033473;28;20060;-69
2022/06/13 08:00:35;;;;;;;4.70;0.82;;;;;;;16.11;94.26;102259.13;5033125;28;20548;-69
2022/06/13 08:03:02;;;;;;;8.20;1.13;;;;;;;16.27;95.75;102270.91;5032618;28;20416;-69
2022/06/13 08:05:29;;;;;;;5.57;1.20;;;;;;;16.56;97.53;102266.91;5030210;28;20504;-69
2022/06/13 08:07:55;;;;;;;4.20;1.35;;;;;;;16.65;95.44;102264.38;5031276;28;20085;-69
2022/06/13 08:10:20;;;;;;;5.93;1.70;;;;;;;16.85;95.23;102270.84;5033766;28;20481;-69
2022/06/13 08:12:46;;;;;;;4.72;1.23;;;;;;;16.84;92.40;102271.72;5033465;28;20156;-69
2022/06/13 08:15:13;;;;;;;8.80;1.65;;;;;;;16.97;94.54;102278.16;5033227;28;20029;-67
2022/06/13 08:17:38;;;;;;;4.95;1.30;;;;;;;16.87;94.43;102281.50;5033002;28;20033;-69
2022/06/13 08:20:04;;;;;;;7.97;1.40;;;;;;;16.60;92.60;102279.38;5032776;28;20385;-68
2022/06/13 08:22:30;;;;;;;10.60;1.52;;;;;;;16.55;95.01;102281.06;5029379;28;20040;-68
2022/06/13 08:24:56;;;;;;;5.03;1.17;;;;;;;16.69;95.86;102285.69;5032586;28;20393;-68
2022/06/13 08:27:21;;;;;;;5.45;1.35;;;;;;;16.77;97.39;102282.28;5031837;28;20107;-68
2022/06/13 08:29:46;;;;;;;4.68;1.13;;;;;;;16.69;94.19;102292.78;5033118;28;20040;-68
2022/06/13 08:32:13;;;;;;;8.27;1.23;;;;;;;16.72;95.62;102290.16;5031728;28;20101;-68
2022/06/13 08:34:38;;;;;;;3.35;1.42;;;;;;;16.73;96.48;102297.28;5030895;28;20036;-69
2022/06/13 08:37:04;;;;;;;7.28;1.17;;;;;;;16.79;97.01;102286.75;5032670;28;20052;-69
2022/06/13 08:39:29;;;;;;;11.10;1.67;;;;;;;16.96;96.73;102299.41;5031348;28;20537;-69
2022/06/13 08:42:05;;;;;;;6.18;1.40;;;;;;;16.83;96.31;102304.53;5031387;28;20444;-68
2022/06/13 08:44:47;;;;;;;5.70;1.48;;;;;;;16.89;98.71;102298.44;5031926;28;20474;-70
2022/06/13 08:47:27;;;;;;;12.57;2.13;;;;;;;16.59;97.45;102309.47;5032599;28;20026;-69
2022/06/13 08:50:11;;;;;;;8.70;1.58;;;;;;;16.58;98.72;102316.56;5032780;28;20030;-69
2022/06/13 08:52:50;;;;;;;10.30;1.58;;;;;;;16.49;99.48;102314.66;5031083;28;20033;-69
2022/06/13 08:55:35;;;;;;;9.00;1.40;;;;;;;16.81;100.00;102321.31;5031380;28;20052;-69
2022/06/13 08:58:09;;;;;;;5.55;1.45;;;;;;;17.07;99.86;102319.03;5031524;28;20033;-69
2022/06/13 09:00:38;;;;;;;7.60;1.65;;;;;;;17.50;100.00;102322.25;5032490;28;20029;-68
2022/06/13 09:03:10;;;;;;;13.82;1.83;;;;;;;17.55;94.58;102324.94;5031479;28;20094;-69
2022/06/13 09:05:50;;;;;;;9.70;1.73;;;;;;;17.37;95.27;102330.94;5031093;28;20029;-69
2022/06/13 09:08:22;;;;;;;9.48;1.65;;;;;;;17.19;97.23;102332.50;5031440;28;20029;-69
2022/06/13 09:10:56;;;;;;;7.47;1.60;;;;;;;17.00;94.58;102333.16;5032886;28;20026;-69
2022/06/13 09:13:28;;;;;;;12.43;1.55;;;;;;;17.00;96.72;102334.03;5032953;28;20026;-69
2022/06/13 09:16:17;;;;;;;9.05;1.40;;;;;;;16.65;98.59;102345.00;5032879;28;20055;-68
2022/06/13 09:18:56;;;;;;;8.40;1.58;;;;;;;16.68;99.39;102336.19;5034229;28;20112;-67
2022/06/13 09:21:37;;;;;;;5.97;1.65;;;;;;;17.03;98.83;102343.81;5031025;28;20446;-69
2022/06/13 09:24:21;;;;;;;7.65;1.38;;;;;;;17.20;96.83;102341.41;5035260;28;20384;-68
2022/06/13 09:26:50;;;;;;;4.72;1.23;;;;;;;17.32;97.33;102351.28;5036939;28;20384;-68
2022/06/13 09:29:36;;;;;;;9.15;1.42;;;;;;;17.15;96.22;102354.63;5036655;28;20029;-68
2022/06/13 09:32:40;;;;;;;8.50;1.67;;;;;;;17.28;96.43;102352.13;5036710;28;20412;-68
2022/06/13 09:35:19;;;;;;;6.82;1.23;;;;;;;17.39;95.68;102358.50;5015321;28;20064;-68
2022/06/13 09:37:57;;;;;;;11.68;2.13;;;;;;;17.46;95.74;102356.81;5034318;28;20056;-68
2022/06/13 09:40:34;;;;;;;7.55;1.38;;;;;;;17.31;94.32;102352.19;5033748;28;20025;-68
2022/06/13 09:43:07;;;;;;;8.07;1.88;;;;;;;17.11;94.47;102363.44;5029245;28;20026;-69
2022/06/13 09:45:47;;;;;;;5.25;1.20;;;;;;;17.28;90.24;102360.09;5036281;28;20029;-69
2022/06/13 09:48:16;;;;;;;7.88;1.25;;;;;;;17.25;87.44;102360.06;5036465;28;20084;-68
2022/06/13 09:50:55;;;;;;;8.38;1.30;;;;;;;17.53;89.32;102362.19;5035954;28;20095;-68
2022/06/13 09:53:36;;;;;;;5.97;1.13;;;;;;;17.45;86.20;102366.53;5035455;28;20021;-68
2022/06/13 09:56:09;;;;;;;6.47;1.40;;;;;;;17.45;88.92;102361.22;5034068;28;20116;-68
2022/06/13 09:59:05;;;;;;;7.25;1.30;;;;;;;17.67;88.78;102374.78;5035825;28;20100;-69
2022/06/13 10:01:46;;;;;;;7.18;1.38;;;;;;;17.46;87.24;102368.31;5031121;28;20129;-68
2022/06/13 10:04:43;;;;;;;6.15;1.63;;;;;;;17.58;89.73;102364.00;5029819;28;20025;-67
2022/06/13 10:07:21;;;;;;;5.00;1.30;;;;;;;17.77;90.96;102366.03;5029690;28;20041;-69
2022/06/13 10:10:01;;;;;;;5.43;1.33;;;;;;;18.02;88.58;102374.31;5031309;28;20029;-68
2022/06/13 10:12:57;;;;;;;8.75;1.83;;;;;;;17.84;86.57;102372.31;5033905;28;20430;-68
2022/06/13 10:15:50;;;;;;;9.57;1.80;;;;;;;17.31;80.40;102373.47;5023388;28;20029;-69
2022/06/13 10:19:03;;;;;;;5.00;1.23;;;;;;;17.67;80.55;102374.78;5029833;28;20045;-68
2022/06/13 10:21:41;;;;;;;4.70;1.33;;;;;;;17.66;76.17;102379.22;5000321;28;20038;-68
2022/06/13 10:24:15;;;;;;;8.23;1.30;;;;;;;18.00;75.75;102384.94;5025542;28;20461;-69
2022/06/13 10:27:14;;;;;;;6.53;1.80;;;;;;;17.84;75.25;102386.50;5031423;28;20036;-68
2022/06/13 10:30:00;;;;;;;6.43;1.40;;;;;;;18.12;75.49;102392.19;5031257;28;20079;-69
2022/06/13 10:32:41;;;;;;;5.00;1.17;;;;;;;18.23;72.23;102380.72;5034229;28;20473;-68
2022/06/13 10:35:09;;;;;;;9.13;1.50;;;;;;;18.50;70.87;102391.63;5035355;28;20104;-68
2022/06/13 10:37:51;;;;;;;5.78;1.25;;;;;;;18.38;69.73;102391.53;5032536;28;20533;-69
2022/06/13 10:40:17;;;;;;;12.40;1.42;;;;;;;18.23;73.21;102394.94;5034789;28;20485;-68
2022/06/13 10:42:44;;;;;;;7.25;1.33;;;;;;;18.24;71.77;102399.38;5035114;28;20106;-69
2022/06/13 10:45:12;;;;;;;7.30;1.80;;;;;;;18.40;75.13;102400.41;5031193;28;20033;-66
2022/06/13 10:47:54;;;;;;;7.82;1.52;;;;;;;18.37;71.67;102398.63;5034070;28;20401;-68
2022/06/13 10:50:28;;;;;;;6.38;1.60;;;;;;;18.38;73.50;102391.53;5033369;28;20054;-67
2022/06/13 10:53:00;;;;;;;7.22;2.08;;;;;;;18.78;75.20;102405.16;5033076;28;20104;-68
2022/06/13 10:55:29;;;;;;;10.75;1.40;;;;;;;18.80;70.93;102394.50;5033395;28;20139;-68
2022/06/13 10:58:04;;;;;;;8.40;1.80;;;;;;;18.87;69.83;102397.25;5035122;28;20025;-68
2022/06/13 11:00:30;;;;;;;9.77;1.48;;;;;;;18.89;69.81;102399.06;5035108;28;20056;-68
2022/06/13 11:03:13;;;;;;;8.15;1.60;;;;;;;19.03;71.43;102405.38;5034057;28;20378;-68
2022/06/13 11:06:01;;;;;;;10.05;1.70;;;;;;;18.84;72.21;102407.00;5034805;28;20029;-68
2022/06/13 11:08:28;;;;;;;9.52;1.85;;;;;;;18.47;70.92;102399.59;5027349;28;20029;-68
2022/06/13 11:11:01;;;;;;;7.97;1.88;;;;;;;18.61;70.81;102406.81;5033680;28;20041;-67
2022/06/13 11:13:36;;;;;;;8.10;1.70;;;;;;;19.03;70.32;102408.03;5034914;28;20381;-68
2022/06/13 11:22:37;;;;;;;12.43;2.00;;;;;;;18.60;70.30;102421.00;5026525;28;20084;-66
2022/06/13 11:25:12;;;;;;;7.18;1.52;;;;;;;18.62;70.14;102420.16;5025403;28;20034;-68
2022/06/13 11:27:39;;;;;;;10.02;1.70;;;;;;;18.79;70.80;102422.09;5034704;28;20014;-68
2022/06/13 11:30:29;;;;;;;9.80;1.67;;;;;;;19.27;73.61;102427.75;5033104;28;20025;-68
2022/06/13 11:33:03;;;;;;;8.63;1.80;;;;;;;19.37;68.22;102429.59;5020343;28;20036;-68
2022/06/13 11:35:37;;;;;;;5.13;1.27;;;;;;;19.37;67.66;102424.25;5028023;28;20575;-68
2022/06/13 11:38:19;;;;;;;7.53;1.35;;;;;;;19.30;68.53;102427.78;5034088;28;20424;-68
2022/06/13 11:40:48;;;;;;;9.98;1.75;;;;;;;19.33;67.81;102422.44;5034364;28;20503;-68
2022/06/13 11:43:23;;;;;;;7.32;2.03;;;;;;;19.13;68.01;102423.22;5027033;28;20036;-67
2022/06/13 11:45:58;;;;;;;5.57;1.60;;;;;;;19.30;68.45;102420.69;5032658;28;20110;-69
2022/06/13 11:48:24;;;;;;;6.18;1.38;;;;;;;19.22;66.71;102425.06;5030005;28;20075;-68
2022/06/13 11:50:55;;;;;;;10.30;1.95;;;;;;;19.49;67.00;102427.00;5033888;28;20479;-67
2022/06/13 11:53:36;;;;;;;5.75;1.85;;;;;;;19.19;65.03;102425.97;5034173;28;20026;-68
2022/06/13 11:56:06;;;;;;;5.38;1.52;;;;;;;19.37;64.04;102424.25;5025890;28;20493;-68
2022/06/13 11:58:34;;;;;;;10.35;2.00;;;;;;;19.78;64.04;102430.66;5033889;28;20021;-68
2022/06/13 12:01:12;;;;;;;6.53;1.50;;;;;;;19.46;63.59;102429.63;5033297;28;20036;-67
2022/06/13 12:03:46;;;;;;;10.48;2.28;;;;;;;19.31;65.20;102432.22;5031670;28;20048;-68
2022/06/13 12:06:16;;;;;;;7.68;1.33;;;;;;;19.45;65.48;102433.22;5031507;28;20021;-67